createdAt,value
2023-01-19T00:00:54.839Z,21.80
2023-01-19T00:03:21.899Z,23.67
2023-01-19T00:05:49.375Z,25.43
2023-01-19T00:08:17.026Z,24.43
2023-01-19T00:10:46.332Z,23.47
2023-01-19T00:13:15.977Z,21.23
2023-01-19T00:15:43.364Z,26.67
2023-01-19T00:18:11.158Z,24.57
2023-01-19T00:20:39.524Z,21.63
2023-01-19T00:23:08.303Z,21.27
2023-01-19T00:25:36.316Z,22.53
2023-01-19T00:28:06.360Z,23.37
2023-01-19T00:30:33.156Z,23.90
2023-01-19T00:33:00.568Z,25.10
2023-01-19T00:35:27.543Z,21.87
2023-01-19T00:37:56.749Z,20.67
2023-01-19T00:40:23.718Z,21.83
2023-01-19T00:42:50.709Z,20.50
2023-01-19T00:45:20.004Z,20.57
2023-01-19T00:47:48.361Z,19.73
2023-01-19T00:50:17.244Z,21.33
2023-01-19T00:52:45.487Z,21.67
2023-01-19T00:55:15.456Z,22.20
2023-01-19T00:57:43.048Z,23.27
2023-01-19T01:00:15.970Z,20.30
2023-01-19T01:02:44.715Z,18.80
2023-01-19T01:05:12.490Z,21.93
2023-01-19T01:07:44.915Z,23.17
2023-01-19T01:10:26.875Z,24.90
2023-01-19T01:12:57.541Z,18.43
2023-01-19T01:15:27.631Z,22.53
2023-01-19T01:17:54.912Z,21.17
2023-01-19T01:20:27.159Z,22.40
2023-01-19T01:22:54.789Z,21.70
2023-01-19T01:25:24.189Z,23.27
2023-01-19T01:27:51.531Z,19.70
2023-01-19T01:30:18.837Z,21.20
2023-01-19T01:32:45.888Z,22.27
2023-01-19T01:35:14.058Z,20.93
2023-01-19T01:37:42.773Z,23.40
2023-01-19T01:40:13.465Z,21.60
2023-01-19T01:42:41.075Z,21.37
2023-01-19T01:45:22.454Z,20.40
2023-01-19T01:47:51.922Z,23.10
2023-01-19T01:50:25.444Z,23.53
2023-01-19T01:53:07.090Z,23.33
2023-01-19T01:55:40.089Z,21.40
2023-01-19T01:58:13.409Z,23.17
2023-01-19T02:00:59.505Z,22.80
2023-01-19T02:03:28.579Z,24.13
2023-01-19T02:05:59.931Z,20.77
2023-01-19T02:09:01.205Z,21.53
2023-01-19T02:11:48.694Z,22.00
2023-01-19T02:14:15.811Z,22.20
2023-01-19T02:16:42.987Z,18.10
2023-01-19T02:19:14.070Z,20.07
2023-01-19T02:22:02.190Z,22.37
2023-01-19T02:24:29.566Z,22.47
2023-01-19T02:26:57.486Z,24.07
2023-01-19T02:29:26.733Z,21.03
2023-01-19T02:31:55.868Z,21.57
2023-01-19T02:34:23.337Z,21.03
2023-01-19T02:36:56.394Z,19.67
2023-01-19T02:39:36.782Z,21.17
2023-01-19T02:42:17.350Z,23.20
2023-01-19T02:44:48.607Z,23.70
2023-01-19T02:47:15.674Z,25.27
2023-01-19T02:49:42.676Z,23.77
2023-01-19T02:52:17.998Z,22.23
2023-01-19T02:55:02.037Z,22.17
2023-01-19T02:58:02.220Z,28.10
2023-01-19T03:01:18.327Z,23.43
2023-01-19T03:04:20.202Z,25.37
2023-01-19T03:06:53.783Z,26.27
2023-01-19T03:09:35.659Z,27.83
2023-01-19T03:12:14.557Z,22.97
2023-01-19T03:14:46.831Z,24.27
2023-01-19T03:17:17.295Z,24.90
2023-01-19T03:19:47.818Z,23.93
2023-01-19T03:22:22.378Z,24.33
2023-01-19T03:24:51.653Z,20.60
2023-01-19T03:27:25.606Z,24.70
2023-01-19T03:30:18.934Z,26.93
2023-01-19T03:32:53.503Z,21.90
2023-01-19T03:35:24.591Z,21.83
2023-01-19T03:37:54.712Z,21.67
2023-01-19T03:40:23.556Z,22.37
2023-01-19T03:42:50.722Z,23.30
2023-01-19T03:45:18.530Z,21.57
2023-01-19T03:47:45.568Z,22.17
2023-01-19T03:50:25.476Z,20.47
2023-01-19T03:53:16.647Z,22.43
2023-01-19T03:55:48.628Z,25.43
2023-01-19T03:58:15.927Z,21.63
2023-01-19T04:00:42.769Z,23.90
2023-01-19T04:03:18.101Z,24.60
2023-01-19T04:05:45.661Z,22.03
2023-01-19T04:08:12.899Z,25.43
2023-01-19T04:10:39.886Z,23.10
2023-01-19T04:13:07.062Z,22.77
2023-01-19T04:15:34.105Z,25.50
2023-01-19T04:18:01.457Z,25.33
2023-01-19T04:20:29.213Z,22.90
2023-01-19T04:23:00.192Z,21.83
2023-01-19T04:25:28.556Z,24.93
2023-01-19T04:27:58.179Z,24.83
2023-01-19T04:30:25.519Z,27.00
2023-01-19T04:32:52.557Z,30.73
2023-01-19T04:35:19.720Z,23.93
2023-01-19T04:37:46.705Z,26.13
2023-01-19T04:40:16.024Z,23.37
2023-01-19T04:42:46.689Z,22.37
2023-01-19T04:45:14.230Z,25.20
2023-01-19T04:47:42.919Z,23.37
2023-01-19T04:50:11.128Z,24.50
2023-01-19T04:52:38.086Z,25.53
2023-01-19T04:55:06.551Z,22.30
2023-01-19T04:57:33.731Z,23.53
2023-01-19T05:00:00.699Z,24.27
2023-01-19T05:02:27.773Z,27.80
2023-01-19T05:04:58.576Z,23.47
2023-01-19T05:07:25.568Z,27.30
2023-01-19T05:09:52.801Z,24.13
2023-01-19T05:12:20.065Z,26.90
2023-01-19T05:14:46.959Z,22.77
2023-01-19T05:17:13.884Z,25.90
2023-01-19T05:19:40.696Z,24.87
2023-01-19T05:22:07.644Z,25.17
2023-01-19T05:24:34.677Z,25.30
2023-01-19T05:27:02.033Z,23.30
2023-01-19T05:29:28.959Z,24.60
2023-01-19T05:31:56.105Z,24.13
2023-01-19T05:34:22.967Z,22.03
2023-01-19T05:36:49.916Z,28.57
2023-01-19T05:39:17.291Z,26.60
2023-01-19T05:41:45.709Z,24.63
2023-01-19T05:44:13.392Z,27.70
2023-01-19T05:46:41.169Z,27.17
2023-01-19T05:49:08.141Z,26.77
2023-01-19T05:51:38.305Z,25.93
2023-01-19T05:54:07.088Z,25.87
2023-01-19T05:56:34.723Z,26.93
2023-01-19T05:59:02.495Z,23.47
2023-01-19T06:01:29.391Z,24.03
2023-01-19T06:03:56.214Z,22.50
2023-01-19T06:06:23.847Z,24.67
2023-01-19T06:08:51.039Z,24.50
2023-01-19T06:11:17.902Z,22.57
2023-01-19T06:13:44.925Z,23.27
2023-01-19T06:16:12.126Z,22.90
2023-01-19T06:18:39.082Z,22.80
2023-01-19T06:21:10.124Z,20.97
2023-01-19T06:23:37.057Z,26.00
2023-01-19T06:26:04.188Z,21.83
2023-01-19T06:28:31.112Z,22.70
2023-01-19T06:30:58.178Z,24.53
2023-01-19T06:33:26.106Z,22.87
2023-01-19T06:35:53.429Z,26.20
2023-01-19T06:38:20.714Z,23.17
2023-01-19T06:40:54.242Z,22.37
2023-01-19T06:43:21.791Z,23.83
2023-01-19T06:45:48.644Z,22.17
2023-01-19T06:48:15.896Z,22.63
2023-01-19T06:50:45.716Z,23.47
2023-01-19T06:53:12.952Z,24.03
2023-01-19T06:55:40.043Z,25.17
2023-01-19T06:58:07.292Z,24.20
2023-01-19T07:00:34.319Z,24.73
2023-01-19T07:03:01.727Z,25.23
2023-01-19T07:05:29.046Z,25.43
2023-01-19T07:07:57.705Z,28.63
2023-01-19T07:10:25.327Z,28.60
2023-01-19T07:12:52.425Z,29.70
2023-01-19T07:15:21.984Z,30.33
2023-01-19T07:17:49.205Z,30.27
2023-01-19T07:20:17.601Z,30.33
2023-01-19T07:22:46.847Z,31.30
2023-01-19T07:25:14.716Z,31.77
2023-01-19T07:27:41.820Z,29.33
2023-01-19T07:30:09.717Z,28.43
2023-01-19T07:32:36.647Z,29.93
2023-01-19T07:35:04.035Z,30.37
2023-01-19T07:37:30.992Z,28.37
2023-01-19T07:39:57.916Z,31.23
2023-01-19T07:42:24.901Z,33.13
2023-01-19T07:44:54.942Z,29.97
2023-01-19T07:47:21.919Z,30.53
2023-01-19T07:49:48.737Z,28.40
2023-01-19T07:52:15.575Z,30.07
2023-01-19T07:54:45.000Z,31.40
2023-01-19T07:57:14.738Z,28.67
2023-01-19T07:59:41.911Z,28.07
2023-01-19T08:02:10.811Z,26.37
2023-01-19T08:04:37.839Z,28.37
2023-01-19T08:07:04.685Z,29.17
2023-01-19T08:09:31.628Z,29.50
2023-01-19T08:11:59.604Z,27.63
2023-01-19T08:14:26.465Z,30.53
2023-01-19T08:16:53.316Z,26.23
2023-01-19T08:19:20.358Z,28.07
2023-01-19T08:21:47.180Z,29.43
2023-01-19T08:24:22.936Z,30.23
2023-01-19T08:26:50.165Z,32.83
2023-01-19T08:29:17.103Z,27.60
2023-01-19T08:31:44.159Z,30.40
2023-01-19T08:34:11.140Z,29.23
2023-01-19T08:36:38.262Z,29.00
2023-01-19T08:39:05.365Z,29.47
2023-01-19T08:41:35.216Z,26.60
2023-01-19T08:44:02.027Z,28.97
2023-01-19T08:46:29.389Z,27.77
2023-01-19T08:48:57.150Z,25.60
2023-01-19T08:51:23.933Z,31.10
2023-01-19T08:53:51.000Z,28.80
2023-01-19T08:56:20.463Z,28.60
2023-01-19T08:58:53.606Z,30.70
2023-01-19T09:01:32.801Z,31.33
2023-01-19T09:03:59.942Z,28.07
2023-01-19T09:06:28.287Z,27.63
2023-01-19T09:08:55.202Z,29.10
2023-01-19T09:11:22.224Z,29.23
2023-01-19T09:13:49.203Z,28.80
2023-01-19T09:16:16.299Z,26.90
2023-01-19T09:18:43.270Z,27.30
2023-01-19T09:21:10.381Z,27.03
2023-01-19T09:23:37.444Z,27.87
2023-01-19T09:26:06.127Z,26.33
2023-01-19T09:28:33.375Z,26.67
2023-01-19T09:31:08.785Z,29.23
2023-01-19T09:33:36.197Z,26.57
2023-01-19T09:36:03.149Z,28.03
2023-01-19T09:38:33.097Z,27.43
2023-01-19T09:41:01.370Z,27.07
2023-01-19T09:43:58.361Z,28.90
2023-01-19T09:46:41.930Z,27.27
2023-01-19T09:49:20.228Z,26.10
2023-01-19T09:51:50.785Z,29.23
2023-01-19T09:54:29.499Z,28.87
2023-01-19T09:56:56.637Z,26.17
2023-01-19T09:59:25.984Z,25.97
2023-01-19T10:02:20.500Z,30.50
2023-01-19T10:05:08.900Z,25.90
2023-01-19T10:07:59.248Z,24.53
2023-01-19T10:10:28.882Z,28.67
2023-01-19T10:13:00.365Z,29.90
2023-01-19T10:15:47.920Z,25.93
2023-01-19T10:18:36.029Z,28.57
2023-01-19T10:21:10.807Z,24.93
2023-01-19T10:23:56.745Z,29.90
2023-01-19T10:26:25.818Z,27.53
2023-01-19T10:29:02.374Z,25.60
2023-01-19T10:31:29.486Z,28.47
2023-01-19T10:33:56.447Z,28.10
2023-01-19T10:36:35.277Z,27.20
2023-01-19T10:39:07.270Z,26.23
2023-01-19T10:41:44.852Z,27.03
2023-01-19T10:44:12.344Z,27.20
2023-01-19T10:46:50.473Z,27.17
2023-01-19T10:49:38.230Z,27.37
2023-01-19T10:52:22.317Z,25.40
2023-01-19T10:54:49.441Z,28.43
2023-01-19T10:57:43.597Z,26.00
2023-01-19T11:00:41.120Z,25.63
2023-01-19T11:03:25.402Z,25.90
2023-01-19T11:05:52.287Z,25.60
2023-01-19T11:08:30.696Z,24.80
2023-01-19T11:11:08.859Z,24.93
2023-01-19T11:13:36.359Z,24.70
2023-01-19T11:16:26.247Z,24.60
2023-01-19T11:18:59.125Z,25.13
2023-01-19T11:21:29.451Z,21.80
2023-01-19T11:24:03.168Z,22.57
2023-01-19T11:26:36.542Z,22.60
2023-01-19T11:29:05.442Z,24.23
2023-01-19T11:31:35.592Z,26.97
2023-01-19T11:34:05.268Z,22.63
2023-01-19T11:36:36.923Z,25.33
2023-01-19T11:39:21.467Z,23.33
2023-01-19T11:41:59.359Z,23.30
2023-01-19T11:44:47.221Z,24.67
2023-01-19T11:47:43.066Z,27.87
2023-01-19T11:50:22.046Z,23.93
2023-01-19T11:53:25.512Z,25.93
2023-01-19T11:56:03.797Z,25.30
2023-01-19T11:58:33.563Z,26.37
2023-01-19T12:01:23.912Z,21.83
2023-01-19T12:04:15.919Z,27.60
2023-01-19T12:06:48.099Z,24.47
2023-01-19T12:09:29.408Z,24.90
2023-01-19T12:12:04.779Z,28.37
2023-01-19T12:14:44.226Z,22.10
2023-01-19T12:17:21.751Z,23.77
2023-01-19T12:20:00.698Z,22.87
2023-01-19T12:22:30.213Z,27.00
2023-01-19T12:25:18.531Z,25.70
2023-01-19T12:27:48.341Z,26.00
2023-01-19T12:30:22.598Z,28.87
2023-01-19T12:32:51.419Z,29.10
2023-01-19T12:35:57.240Z,27.20
2023-01-19T12:38:39.639Z,25.97
2023-01-19T12:41:37.441Z,24.47
2023-01-19T12:44:10.308Z,27.00
2023-01-19T12:46:46.596Z,24.73
2023-01-19T12:49:31.534Z,26.60
2023-01-19T12:52:29.252Z,25.87
2023-01-19T12:55:04.175Z,26.60
2023-01-19T12:57:55.283Z,23.43
2023-01-19T13:00:22.067Z,23.27
2023-01-19T13:02:58.035Z,24.23
2023-01-19T13:05:32.672Z,24.07
2023-01-19T13:08:03.313Z,25.80
2023-01-19T13:11:10.686Z,22.47
2023-01-19T13:13:45.227Z,26.77
2023-01-19T13:16:21.145Z,23.70
2023-01-19T13:18:50.791Z,21.33
2023-01-19T13:21:45.640Z,21.40
2023-01-19T13:24:19.371Z,21.47
2023-01-19T13:26:49.125Z,21.17
2023-01-19T13:29:37.344Z,20.53
2023-01-19T13:32:11.946Z,21.27
2023-01-19T13:34:50.859Z,19.77
2023-01-19T13:37:21.925Z,18.27
2023-01-19T13:39:51.788Z,21.67
2023-01-19T13:42:28.596Z,16.77
2023-01-19T13:44:59.105Z,19.73
2023-01-19T13:47:42.085Z,18.83
2023-01-19T13:50:26.813Z,17.50
2023-01-19T13:52:55.824Z,21.30
2023-01-19T13:55:24.180Z,19.60
2023-01-19T13:57:54.821Z,20.30
2023-01-19T14:00:30.292Z,21.27
2023-01-19T14:03:00.542Z,18.77
2023-01-19T14:05:34.681Z,19.30
2023-01-19T14:08:12.351Z,22.30
2023-01-19T14:10:44.013Z,21.00
2023-01-19T14:13:23.473Z,20.00
2023-01-19T14:15:52.654Z,20.63
2023-01-19T14:18:25.684Z,19.93
2023-01-19T14:21:15.783Z,17.67
2023-01-19T14:23:51.437Z,17.90
2023-01-19T14:26:50.228Z,17.47
2023-01-19T14:29:33.397Z,22.57
2023-01-19T14:32:07.624Z,17.27
2023-01-19T14:34:39.454Z,17.10
2023-01-19T14:37:28.560Z,15.80
2023-01-19T14:39:58.158Z,12.27
2023-01-19T14:42:28.871Z,10.40
2023-01-19T14:44:57.316Z,12.83
2023-01-19T14:47:31.593Z,9.93
2023-01-19T14:50:21.681Z,12.00
2023-01-19T14:53:02.117Z,9.53
2023-01-19T14:55:56.037Z,7.50
2023-01-19T14:58:26.344Z,10.40
2023-01-19T15:00:58.545Z,6.20
2023-01-19T15:03:42.873Z,7.43
2023-01-19T15:06:17.401Z,8.53
2023-01-19T15:08:45.625Z,6.60
2023-01-19T15:11:26.289Z,7.70
2023-01-19T15:13:54.476Z,10.93
2023-01-19T15:16:23.516Z,7.20
2023-01-19T15:18:50.663Z,6.73
2023-01-19T15:21:20.284Z,4.67
2023-01-19T15:23:47.934Z,7.07
2023-01-19T15:26:21.030Z,6.10
2023-01-19T15:28:52.004Z,8.30
2023-01-19T15:31:22.168Z,6.27
2023-01-19T15:33:49.497Z,6.30
2023-01-19T15:36:19.272Z,6.17
2023-01-19T15:38:47.767Z,8.10
2023-01-19T15:41:37.192Z,7.43
2023-01-19T15:44:06.368Z,7.97
2023-01-19T15:46:33.537Z,8.77
2023-01-19T15:49:03.449Z,8.03
2023-01-19T15:51:30.411Z,7.33
2023-01-19T15:53:57.475Z,12.83
2023-01-19T15:56:30.028Z,6.67
2023-01-19T15:58:58.416Z,7.00
2023-01-19T16:01:37.290Z,8.23
2023-01-19T16:04:06.909Z,4.17
2023-01-19T16:06:34.453Z,7.00
2023-01-19T16:09:01.857Z,5.47
2023-01-19T16:11:31.296Z,4.13
2023-01-19T16:13:58.492Z,8.80
2023-01-19T16:16:27.419Z,5.70
2023-01-19T16:18:54.521Z,4.20
2023-01-19T16:21:21.634Z,9.77
2023-01-19T16:23:51.870Z,5.67
2023-01-19T16:26:36.998Z,6.00
2023-01-19T16:29:11.129Z,7.03
2023-01-19T16:31:39.656Z,5.37
2023-01-19T16:34:07.118Z,6.30
2023-01-19T16:36:35.816Z,4.87
2023-01-19T16:39:08.547Z,3.67
2023-01-19T16:41:36.571Z,4.90
2023-01-19T16:44:05.341Z,6.80
2023-01-19T16:46:35.472Z,5.80
2023-01-19T16:49:13.098Z,7.70
2023-01-19T16:51:40.236Z,8.60
2023-01-19T16:54:07.715Z,15.63
2023-01-19T16:56:34.665Z,14.73
2023-01-19T16:59:01.868Z,13.47
2023-01-19T17:01:29.585Z,9.73
2023-01-19T17:03:56.873Z,7.13
2023-01-19T17:06:27.131Z,13.97
2023-01-19T17:08:54.085Z,7.97
2023-01-19T17:11:29.503Z,9.60
2023-01-19T17:14:05.301Z,9.10
2023-01-19T17:16:34.454Z,9.77
2023-01-19T17:19:03.412Z,10.63
2023-01-19T17:21:30.379Z,9.20
2023-01-19T17:23:58.851Z,7.40
2023-01-19T17:26:31.367Z,7.83
2023-01-19T17:29:02.642Z,6.07
2023-01-19T17:31:30.815Z,6.77
2023-01-19T17:33:59.359Z,9.10
2023-01-19T17:36:29.301Z,5.90
2023-01-19T17:38:59.687Z,4.87
2023-01-19T17:41:31.607Z,5.47
2023-01-19T17:44:05.592Z,6.07
2023-01-19T17:46:39.392Z,8.30
2023-01-19T17:49:09.234Z,8.40
2023-01-19T17:51:36.525Z,7.77
2023-01-19T17:54:04.380Z,8.33
2023-01-19T17:56:40.062Z,5.67
2023-01-19T17:59:08.339Z,3.43
2023-01-19T18:01:39.959Z,4.17
2023-01-19T18:04:09.261Z,3.10
2023-01-19T18:06:37.459Z,2.60
2023-01-19T18:09:07.200Z,5.90
2023-01-19T18:11:34.644Z,5.40
2023-01-19T18:14:02.297Z,3.50
2023-01-19T18:16:30.695Z,3.70
2023-01-19T18:18:58.050Z,7.77
2023-01-19T18:21:28.362Z,2.73
2023-01-19T18:27:20.568Z,8.40
2023-01-19T18:29:47.712Z,7.93
2023-01-19T18:32:14.630Z,7.00
2023-01-19T18:34:41.599Z,5.50
2023-01-19T18:37:11.339Z,9.10
2023-01-19T18:39:38.117Z,10.27
2023-01-19T18:42:04.992Z,10.73
2023-01-19T18:44:31.862Z,8.33
2023-01-19T18:46:58.892Z,9.20
2023-01-19T18:49:26.200Z,7.20
2023-01-19T18:51:53.092Z,8.73
2023-01-19T18:54:20.184Z,8.13
2023-01-19T18:56:50.200Z,5.47
2023-01-19T18:59:17.443Z,5.87
2023-01-19T19:01:44.821Z,6.23
2023-01-19T19:04:11.773Z,6.63
2023-01-19T19:06:38.727Z,7.87
2023-01-19T19:09:05.663Z,7.30
2023-01-19T19:11:32.700Z,10.70
2023-01-19T19:14:02.351Z,6.63
2023-01-19T19:16:31.333Z,7.70
2023-01-19T19:18:59.890Z,10.33
2023-01-19T19:21:26.835Z,4.93
2023-01-19T19:23:56.028Z,4.63
2023-01-19T19:26:23.988Z,3.30
2023-01-19T19:28:55.459Z,8.37
2023-01-19T19:33:41.907Z,5.03
2023-01-19T19:36:09.867Z,4.73
